sensor_id;sensor_type;location;lat;lon;timestamp;P1;durP1;ratioP1;P2;durP2;ratioP2
27269;SDS011;14769;56.934;24.176;2022-09-16T00:01:00;4.70;;;1.40;;
27269;SDS011;14769;56.934;24.176;2022-09-16T00:02:09;9.38;;;1.85;;
27269;SDS011;14769;56.934;24.176;2022-09-16T00:03:11;8.88;;;1.52;;
27269;SDS011;14769;56.934;24.176;2022-09-16T00:04:15;6.65;;;1.50;;
27269;SDS011;14769;56.934;24.176;2022-09-16T00:05:18;7.65;;;1.70;;
27269;SDS011;14769;56.934;24.176;2022-09-16T00:06:21;4.93;;;1.75;;
27269;SDS011;14769;56.934;24.176;2022-09-16T00:07:24;2.78;;;1.50;;
27269;SDS011;14769;56.934;24.176;2022-09-16T00:08:26;5.53;;;1.80;;
27269;SDS011;14769;56.934;24.176;2022-09-16T00:09:28;6.97;;;1.75;;
27269;SDS011;14769;56.934;24.176;2022-09-16T00:10:30;5.68;;;1.70;;
27269;SDS011;14769;56.934;24.176;2022-09-16T00:11:32;6.35;;;1.95;;
27269;SDS011;14769;56.934;24.176;2022-09-16T00:12:35;6.70;;;1.83;;
27269;SDS011;14769;56.934;24.176;2022-09-16T00:13:36;10.38;;;2.20;;
27269;SDS011;14769;56.934;24.176;2022-09-16T00:14:38;6.15;;;1.80;;
27269;SDS011;14769;56.934;24.176;2022-09-16T00:15:44;5.05;;;1.73;;
27269;SDS011;14769;56.934;24.176;2022-09-16T00:16:47;7.75;;;1.85;;
27269;SDS011;14769;56.934;24.176;2022-09-16T00:17:49;5.20;;;1.60;;
27269;SDS011;14769;56.934;24.176;2022-09-16T00:18:54;8.15;;;1.70;;
27269;SDS011;14769;56.934;24.176;2022-09-16T00:19:58;6.65;;;1.70;;
27269;SDS011;14769;56.934;24.176;2022-09-16T00:21:00;4.90;;;1.50;;
27269;SDS011;14769;56.934;24.176;2022-09-16T00:22:02;8.23;;;2.13;;
27269;SDS011;14769;56.934;24.176;2022-09-16T00:23:04;8.45;;;2.13;;
27269;SDS011;14769;56.934;24.176;2022-09-16T00:24:06;8.20;;;2.22;;
27269;SDS011;14769;56.934;24.176;2022-09-16T00:25:07;6.15;;;2.25;;
27269;SDS011;14769;56.934;24.176;2022-09-16T00:26:10;4.97;;;1.65;;
27269;SDS011;14769;56.934;24.176;2022-09-16T00:27:11;5.28;;;1.80;;
27269;SDS011;14769;56.934;24.176;2022-09-16T00:28:14;6.75;;;1.75;;
27269;SDS011;14769;56.934;24.176;2022-09-16T00:29:16;6.53;;;1.73;;
27269;SDS011;14769;56.934;24.176;2022-09-16T00:30:18;10.18;;;1.73;;
27269;SDS011;14769;56.934;24.176;2022-09-16T00:31:21;8.93;;;1.95;;
27269;SDS011;14769;56.934;24.176;2022-09-16T00:32:23;6.78;;;1.90;;
27269;SDS011;14769;56.934;24.176;2022-09-16T00:33:25;6.15;;;1.80;;
27269;SDS011;14769;56.934;24.176;2022-09-16T00:34:27;7.25;;;2.20;;
27269;SDS011;14769;56.934;24.176;2022-09-16T00:35:29;7.90;;;1.88;;
27269;SDS011;14769;56.934;24.176;2022-09-16T00:36:31;9.00;;;1.90;;
27269;SDS011;14769;56.934;24.176;2022-09-16T00:37:33;6.32;;;1.92;;
27269;SDS011;14769;56.934;24.176;2022-09-16T00:38:35;6.60;;;2.20;;
27269;SDS011;14769;56.934;24.176;2022-09-16T00:39:37;10.52;;;2.28;;
27269;SDS011;14769;56.934;24.176;2022-09-16T00:40:45;8.15;;;2.10;;
27269;SDS011;14769;56.934;24.176;2022-09-16T00:41:49;10.90;;;2.33;;
27269;SDS011;14769;56.934;24.176;2022-09-16T00:42:51;9.10;;;2.53;;
27269;SDS011;14769;56.934;24.176;2022-09-16T00:43:57;6.55;;;2.22;;
27269;SDS011;14769;56.934;24.176;2022-09-16T00:45:01;6.03;;;2.42;;
27269;SDS011;14769;56.934;24.176;2022-09-16T00:46:05;5.65;;;2.50;;
27269;SDS011;14769;56.934;24.176;2022-09-16T00:47:07;12.93;;;2.65;;
27269;SDS011;14769;56.934;24.176;2022-09-16T00:48:09;6.93;;;2.50;;
27269;SDS011;14769;56.934;24.176;2022-09-16T00:49:21;7.93;;;2.45;;
27269;SDS011;14769;56.934;24.176;2022-09-16T00:50:40;12.05;;;2.30;;
27269;SDS011;14769;56.934;24.176;2022-09-16T00:52:09;6.63;;;2.30;;
27269;SDS011;14769;56.934;24.176;2022-09-16T00:53:12;9.90;;;2.35;;
27269;SDS011;14769;56.934;24.176;2022-09-16T00:54:19;6.72;;;2.20;;
27269;SDS011;14769;56.934;24.176;2022-09-16T00:55:29;8.27;;;2.40;;
27269;SDS011;14769;56.934;24.176;2022-09-16T00:56:34;4.78;;;1.77;;
27269;SDS011;14769;56.934;24.176;2022-09-16T00:57:39;10.88;;;2.47;;
27269;SDS011;14769;56.934;24.176;2022-09-16T00:58:43;9.98;;;2.35;;
27269;SDS011;14769;56.934;24.176;2022-09-16T00:59:50;6.85;;;2.05;;
27269;SDS011;14769;56.934;24.176;2022-09-16T01:00:54;5.45;;;2.25;;
27269;SDS011;14769;56.934;24.176;2022-09-16T01:01:57;8.45;;;1.98;;
27269;SDS011;14769;56.934;24.176;2022-09-16T01:03:04;8.77;;;2.08;;
27269;SDS011;14769;56.934;24.176;2022-09-16T01:04:42;9.90;;;1.88;;
27269;SDS011;14769;56.934;24.176;2022-09-16T01:05:37;8.63;;;2.08;;
27269;SDS011;14769;56.934;24.176;2022-09-16T01:06:39;6.53;;;1.55;;
27269;SDS011;14769;56.934;24.176;2022-09-16T01:07:43;6.97;;;1.55;;
27269;SDS011;14769;56.934;24.176;2022-09-16T01:08:47;9.82;;;1.65;;
27269;SDS011;14769;56.934;24.176;2022-09-16T01:09:50;6.72;;;1.52;;
27269;SDS011;14769;56.934;24.176;2022-09-16T01:10:52;5.50;;;1.65;;
27269;SDS011;14769;56.934;24.176;2022-09-16T01:11:54;6.93;;;1.85;;
27269;SDS011;14769;56.934;24.176;2022-09-16T01:13:01;8.98;;;1.90;;
27269;SDS011;14769;56.934;24.176;2022-09-16T01:14:05;4.05;;;1.67;;
27269;SDS011;14769;56.934;24.176;2022-09-16T01:15:30;3.20;;;1.70;;
27269;SDS011;14769;56.934;24.176;2022-09-16T01:16:53;8.48;;;1.70;;
27269;SDS011;14769;56.934;24.176;2022-09-16T01:18:08;8.07;;;2.10;;
27269;SDS011;14769;56.934;24.176;2022-09-16T01:21:53;6.43;;;1.83;;
27269;SDS011;14769;56.934;24.176;2022-09-16T01:23:10;7.38;;;2.13;;
27269;SDS011;14769;56.934;24.176;2022-09-16T01:24:43;6.30;;;2.08;;
27269;SDS011;14769;56.934;24.176;2022-09-16T01:27:20;3.03;;;1.77;;
27269;SDS011;14769;56.934;24.176;2022-09-16T01:28:50;7.05;;;1.83;;
27269;SDS011;14769;56.934;24.176;2022-09-16T01:34:00;8.20;;;1.90;;
27269;SDS011;14769;56.934;24.176;2022-09-16T01:48:32;8.77;;;2.25;;
27269;SDS011;14769;56.934;24.176;2022-09-16T01:56:15;7.65;;;2.30;;
27269;SDS011;14769;56.934;24.176;2022-09-16T01:57:26;8.20;;;2.38;;
27269;SDS011;14769;56.934;24.176;2022-09-16T01:58:34;4.97;;;1.80;;
27269;SDS011;14769;56.934;24.176;2022-09-16T01:59:53;6.68;;;1.90;;
27269;SDS011;14769;56.934;24.176;2022-09-16T02:01:05;7.30;;;2.28;;
27269;SDS011;14769;56.934;24.176;2022-09-16T02:02:17;8.07;;;2.25;;
27269;SDS011;14769;56.934;24.176;2022-09-16T02:03:29;7.05;;;1.98;;
27269;SDS011;14769;56.934;24.176;2022-09-16T02:04:38;7.35;;;2.03;;
27269;SDS011;14769;56.934;24.176;2022-09-16T02:05:46;7.03;;;1.88;;
27269;SDS011;14769;56.934;24.176;2022-09-16T02:06:53;3.80;;;1.58;;
27269;SDS011;14769;56.934;24.176;2022-09-16T02:08:19;9.48;;;2.50;;
27269;SDS011;14769;56.934;24.176;2022-09-16T02:09:29;7.07;;;1.75;;
27269;SDS011;14769;56.934;24.176;2022-09-16T02:10:45;5.93;;;1.60;;
27269;SDS011;14769;56.934;24.176;2022-09-16T02:11:51;6.15;;;1.65;;
27269;SDS011;14769;56.934;24.176;2022-09-16T02:12:58;8.70;;;1.75;;
27269;SDS011;14769;56.934;24.176;2022-09-16T02:14:16;6.15;;;1.60;;
27269;SDS011;14769;56.934;24.176;2022-09-16T02:15:22;5.25;;;1.55;;
27269;SDS011;14769;56.934;24.176;2022-09-16T02:16:37;6.97;;;1.80;;
27269;SDS011;14769;56.934;24.176;2022-09-16T02:17:57;8.90;;;1.60;;
27269;SDS011;14769;56.934;24.176;2022-09-16T02:19:08;7.47;;;1.65;;
27269;SDS011;14769;56.934;24.176;2022-09-16T02:20:19;9.77;;;1.80;;
27269;SDS011;14769;56.934;24.176;2022-09-16T02:21:26;6.32;;;1.90;;
27269;SDS011;14769;56.934;24.176;2022-09-16T02:22:48;5.90;;;1.75;;
27269;SDS011;14769;56.934;24.176;2022-09-16T02:23:54;4.97;;;1.50;;
27269;SDS011;14769;56.934;24.176;2022-09-16T02:25:00;5.75;;;1.67;;
27269;SDS011;14769;56.934;24.176;2022-09-16T02:26:05;7.28;;;1.42;;
27269;SDS011;14769;56.934;24.176;2022-09-16T02:27:11;6.70;;;2.03;;
27269;SDS011;14769;56.934;24.176;2022-09-16T02:28:20;5.68;;;1.48;;
27269;SDS011;14769;56.934;24.176;2022-09-16T02:29:33;5.75;;;1.90;;
27269;SDS011;14769;56.934;24.176;2022-09-16T02:30:42;11.60;;;1.58;;
27269;SDS011;14769;56.934;24.176;2022-09-16T02:31:46;3.80;;;1.30;;
27269;SDS011;14769;56.934;24.176;2022-09-16T02:32:56;3.03;;;1.20;;
27269;SDS011;14769;56.934;24.176;2022-09-16T02:34:04;7.63;;;1.60;;
27269;SDS011;14769;56.934;24.176;2022-09-16T02:35:13;6.70;;;1.90;;
27269;SDS011;14769;56.934;24.176;2022-09-16T02:36:18;8.32;;;1.65;;
27269;SDS011;14769;56.934;24.176;2022-09-16T02:37:24;7.18;;;1.50;;
27269;SDS011;14769;56.934;24.176;2022-09-16T02:38:32;7.50;;;2.13;;
27269;SDS011;14769;56.934;24.176;2022-09-16T02:39:40;7.55;;;1.60;;
27269;SDS011;14769;56.934;24.176;2022-09-16T02:40:47;7.28;;;1.65;;
27269;SDS011;14769;56.934;24.176;2022-09-16T02:42:14;6.30;;;1.60;;
27269;SDS011;14769;56.934;24.176;2022-09-16T02:43:17;5.47;;;1.48;;
27269;SDS011;14769;56.934;24.176;2022-09-16T02:44:19;7.85;;;1.20;;
27269;SDS011;14769;56.934;24.176;2022-09-16T02:45:22;3.55;;;1.40;;
27269;SDS011;14769;56.934;24.176;2022-09-16T02:46:35;4.72;;;1.17;;
27269;SDS011;14769;56.934;24.176;2022-09-16T02:47:55;6.30;;;1.23;;
27269;SDS011;14769;56.934;24.176;2022-09-16T02:50:51;4.20;;;1.35;;
27269;SDS011;14769;56.934;24.176;2022-09-16T02:52:05;7.72;;;1.23;;
27269;SDS011;14769;56.934;24.176;2022-09-16T02:53:35;6.72;;;1.42;;
27269;SDS011;14769;56.934;24.176;2022-09-16T02:55:03;5.68;;;1.48;;
27269;SDS011;14769;56.934;24.176;2022-09-16T02:56:23;6.40;;;1.13;;
27269;SDS011;14769;56.934;24.176;2022-09-16T02:57:31;8.10;;;1.38;;
27269;SDS011;14769;56.934;24.176;2022-09-16T02:58:33;8.27;;;1.30;;
27269;SDS011;14769;56.934;24.176;2022-09-16T02:59:36;9.18;;;1.90;;
27269;SDS011;14769;56.934;24.176;2022-09-16T03:00:44;5.40;;;1.67;;
27269;SDS011;14769;56.934;24.176;2022-09-16T03:01:48;5.68;;;1.52;;
27269;SDS011;14769;56.934;24.176;2022-09-16T03:02:52;7.00;;;1.60;;
27269;SDS011;14769;56.934;24.176;2022-09-16T03:03:54;9.20;;;1.67;;
27269;SDS011;14769;56.934;24.176;2022-09-16T03:04:56;4.47;;;1.35;;
27269;SDS011;14769;56.934;24.176;2022-09-16T03:07:07;6.18;;;1.20;;
27269;SDS011;14769;56.934;24.176;2022-09-16T03:08:10;5.53;;;1.33;;
27269;SDS011;14769;56.934;24.176;2022-09-16T03:09:13;8.02;;;1.50;;
27269;SDS011;14769;56.934;24.176;2022-09-16T03:10:18;5.63;;;1.25;;
27269;SDS011;14769;56.934;24.176;2022-09-16T03:11:34;7.22;;;1.80;;
27269;SDS011;14769;56.934;24.176;2022-09-16T03:12:55;5.03;;;1.52;;
27269;SDS011;14769;56.934;24.176;2022-09-16T03:15:48;4.43;;;1.75;;
27269;SDS011;14769;56.934;24.176;2022-09-16T03:17:19;8.85;;;1.33;;
27269;SDS011;14769;56.934;24.176;2022-09-16T03:18:50;3.75;;;1.50;;
27269;SDS011;14769;56.934;24.176;2022-09-16T03:20:20;8.18;;;1.80;;
27269;SDS011;14769;56.934;24.176;2022-09-16T03:21:45;6.68;;;1.55;;
27269;SDS011;14769;56.934;24.176;2022-09-16T03:22:59;3.47;;;1.10;;
27269;SDS011;14769;56.934;24.176;2022-09-16T03:25:31;6.68;;;1.77;;
27269;SDS011;14769;56.934;24.176;2022-09-16T03:26:45;4.68;;;1.10;;
27269;SDS011;14769;56.934;24.176;2022-09-16T03:29:16;4.03;;;1.30;;
27269;SDS011;14769;56.934;24.176;2022-09-16T03:30:29;5.55;;;1.35;;
27269;SDS011;14769;56.934;24.176;2022-09-16T03:31:42;6.25;;;1.40;;
27269;SDS011;14769;56.934;24.176;2022-09-16T03:33:07;7.10;;;1.50;;
27269;SDS011;14769;56.934;24.176;2022-09-16T03:34:19;6.00;;;1.35;;
27269;SDS011;14769;56.934;24.176;2022-09-16T03:35:44;7.10;;;1.63;;
27269;SDS011;14769;56.934;24.176;2022-09-16T03:36:51;3.00;;;1.25;;
27269;SDS011;14769;56.934;24.176;2022-09-16T03:37:57;3.88;;;1.55;;
27269;SDS011;14769;56.934;24.176;2022-09-16T03:39:01;7.03;;;1.60;;
27269;SDS011;14769;56.934;24.176;2022-09-16T03:40:06;5.22;;;1.52;;
27269;SDS011;14769;56.934;24.176;2022-09-16T03:41:11;2.97;;;1.20;;
27269;SDS011;14769;56.934;24.176;2022-09-16T03:42:15;2.95;;;1.15;;
27269;SDS011;14769;56.934;24.176;2022-09-16T03:43:17;3.83;;;1.52;;
27269;SDS011;14769;56.934;24.176;2022-09-16T03:44:19;6.38;;;1.33;;
27269;SDS011;14769;56.934;24.176;2022-09-16T03:45:21;4.88;;;1.42;;
27269;SDS011;14769;56.934;24.176;2022-09-16T03:46:24;4.22;;;1.20;;
27269;SDS011;14769;56.934;24.176;2022-09-16T03:47:29;2.60;;;1.10;;
27269;SDS011;14769;56.934;24.176;2022-09-16T03:48:30;6.90;;;1.60;;
27269;SDS011;14769;56.934;24.176;2022-09-16T03:49:33;4.68;;;1.27;;
27269;SDS011;14769;56.934;24.176;2022-09-16T03:50:35;4.07;;;1.42;;
27269;SDS011;14769;56.934;24.176;2022-09-16T03:51:37;4.93;;;1.00;;
27269;SDS011;14769;56.934;24.176;2022-09-16T03:52:39;5.53;;;1.65;;
27269;SDS011;14769;56.934;24.176;2022-09-16T03:53:42;6.18;;;1.02;;
27269;SDS011;14769;56.934;24.176;2022-09-16T03:54:44;3.40;;;1.27;;
27269;SDS011;14769;56.934;24.176;2022-09-16T03:55:47;2.58;;;1.10;;
27269;SDS011;14769;56.934;24.176;2022-09-16T03:56:50;5.28;;;1.10;;
27269;SDS011;14769;56.934;24.176;2022-09-16T03:57:53;5.75;;;1.33;;
27269;SDS011;14769;56.934;24.176;2022-09-16T03:58:55;2.53;;;1.23;;
27269;SDS011;14769;56.934;24.176;2022-09-16T03:59:56;5.13;;;1.48;;
27269;SDS011;14769;56.934;24.176;2022-09-16T04:00:58;1.98;;;1.00;;
27269;SDS011;14769;56.934;24.176;2022-09-16T04:02:00;3.75;;;1.15;;
27269;SDS011;14769;56.934;24.176;2022-09-16T04:03:02;3.30;;;1.00;;
27269;SDS011;14769;56.934;24.176;2022-09-16T04:04:04;2.78;;;1.10;;
27269;SDS011;14769;56.934;24.176;2022-09-16T04:05:06;3.38;;;1.02;;
27269;SDS011;14769;56.934;24.176;2022-09-16T04:06:09;6.05;;;1.35;;
27269;SDS011;14769;56.934;24.176;2022-09-16T04:07:11;2.45;;;1.33;;
27269;SDS011;14769;56.934;24.176;2022-09-16T04:08:12;4.05;;;1.38;;
27269;SDS011;14769;56.934;24.176;2022-09-16T04:09:14;5.35;;;1.10;;
27269;SDS011;14769;56.934;24.176;2022-09-16T04:10:17;4.22;;;1.33;;
27269;SDS011;14769;56.934;24.176;2022-09-16T04:11:19;1.98;;;1.00;;
27269;SDS011;14769;56.934;24.176;2022-09-16T04:12:21;1.95;;;1.02;;
27269;SDS011;14769;56.934;24.176;2022-09-16T04:13:23;2.60;;;1.33;;
27269;SDS011;14769;56.934;24.176;2022-09-16T04:14:25;2.58;;;1.10;;
27269;SDS011;14769;56.934;24.176;2022-09-16T04:15:27;3.33;;;1.50;;
27269;SDS011;14769;56.934;24.176;2022-09-16T04:16:29;1.60;;;0.98;;
27269;SDS011;14769;56.934;24.176;2022-09-16T04:17:31;4.68;;;1.08;;
27269;SDS011;14769;56.934;24.176;2022-09-16T04:18:34;2.90;;;1.00;;
27269;SDS011;14769;56.934;24.176;2022-09-16T04:19:36;2.38;;;1.17;;
27269;SDS011;14769;56.934;24.176;2022-09-16T04:20:37;2.33;;;0.98;;
27269;SDS011;14769;56.934;24.176;2022-09-16T04:21:40;1.52;;;0.90;;
27269;SDS011;14769;56.934;24.176;2022-09-16T04:22:43;2.05;;;0.95;;
27269;SDS011;14769;56.934;24.176;2022-09-16T04:23:45;3.28;;;1.35;;
27269;SDS011;14769;56.934;24.176;2022-09-16T04:24:47;5.38;;;1.58;;
27269;SDS011;14769;56.934;24.176;2022-09-16T04:25:55;4.13;;;1.40;;
27269;SDS011;14769;56.934;24.176;2022-09-16T04:26:59;2.40;;;1.15;;
27269;SDS011;14769;56.934;24.176;2022-09-16T04:28:01;2.22;;;1.30;;
27269;SDS011;14769;56.934;24.176;2022-09-16T04:29:03;2.20;;;1.30;;
27269;SDS011;14769;56.934;24.176;2022-09-16T04:30:04;4.90;;;1.17;;
27269;SDS011;14769;56.934;24.176;2022-09-16T04:31:09;2.03;;;1.30;;
27269;SDS011;14769;56.934;24.176;2022-09-16T04:32:12;4.63;;;1.27;;
27269;SDS011;14769;56.934;24.176;2022-09-16T04:33:14;5.50;;;1.20;;
27269;SDS011;14769;56.934;24.176;2022-09-16T04:34:16;2.38;;;1.13;;
27269;SDS011;14769;56.934;24.176;2022-09-16T04:35:17;2.60;;;1.20;;
27269;SDS011;14769;56.934;24.176;2022-09-16T04:36:20;4.53;;;1.33;;
27269;SDS011;14769;56.934;24.176;2022-09-16T04:37:22;2.45;;;1.10;;
27269;SDS011;14769;56.934;24.176;2022-09-16T04:38:23;2.72;;;1.10;;
27269;SDS011;14769;56.934;24.176;2022-09-16T04:39:26;3.70;;;1.13;;
27269;SDS011;14769;56.934;24.176;2022-09-16T04:40:28;2.08;;;1.20;;
27269;SDS011;14769;56.934;24.176;2022-09-16T04:41:30;3.22;;;1.60;;
27269;SDS011;14769;56.934;24.176;2022-09-16T04:42:32;5.40;;;1.50;;
27269;SDS011;14769;56.934;24.176;2022-09-16T04:43:34;3.60;;;1.42;;
27269;SDS011;14769;56.934;24.176;2022-09-16T04:44:37;3.33;;;1.45;;
27269;SDS011;14769;56.934;24.176;2022-09-16T04:45:40;5.57;;;1.38;;
27269;SDS011;14769;56.934;24.176;2022-09-16T04:46:42;5.43;;;1.35;;
27269;SDS011;14769;56.934;24.176;2022-09-16T04:47:43;4.18;;;1.40;;
27269;SDS011;14769;56.934;24.176;2022-09-16T04:48:46;6.50;;;1.50;;
27269;SDS011;14769;56.934;24.176;2022-09-16T04:49:49;4.18;;;1.42;;
27269;SDS011;14769;56.934;24.176;2022-09-16T04:50:51;4.57;;;1.92;;
27269;SDS011;14769;56.934;24.176;2022-09-16T04:51:54;2.85;;;1.40;;
27269;SDS011;14769;56.934;24.176;2022-09-16T04:52:56;5.10;;;1.67;;
27269;SDS011;14769;56.934;24.176;2022-09-16T04:53:58;8.27;;;2.00;;
27269;SDS011;14769;56.934;24.176;2022-09-16T04:55:02;3.60;;;1.60;;
27269;SDS011;14769;56.934;24.176;2022-09-16T04:56:07;5.75;;;2.17;;
27269;SDS011;14769;56.934;24.176;2022-09-16T04:57:14;6.75;;;1.98;;
27269;SDS011;14769;56.934;24.176;2022-09-16T04:58:16;5.82;;;2.17;;
27269;SDS011;14769;56.934;24.176;2022-09-16T04:59:19;8.25;;;2.60;;
27269;SDS011;14769;56.934;24.176;2022-09-16T05:00:21;6.28;;;2.42;;
27269;SDS011;14769;56.934;24.176;2022-09-16T05:01:24;6.18;;;2.15;;
27269;SDS011;14769;56.934;24.176;2022-09-16T05:02:28;8.88;;;2.30;;
27269;SDS011;14769;56.934;24.176;2022-09-16T05:03:30;6.38;;;1.92;;
27269;SDS011;14769;56.934;24.176;2022-09-16T05:04:32;6.22;;;1.83;;
27269;SDS011;14769;56.934;24.176;2022-09-16T05:05:34;8.50;;;1.92;;
27269;SDS011;14769;56.934;24.176;2022-09-16T05:06:37;4.57;;;1.90;;
27269;SDS011;14769;56.934;24.176;2022-09-16T05:07:40;4.00;;;1.85;;
27269;SDS011;14769;56.934;24.176;2022-09-16T05:08:42;8.80;;;2.10;;
27269;SDS011;14769;56.934;24.176;2022-09-16T05:09:44;6.65;;;1.98;;
27269;SDS011;14769;56.934;24.176;2022-09-16T05:10:47;5.53;;;1.70;;
27269;SDS011;14769;56.934;24.176;2022-09-16T05:11:48;9.27;;;1.83;;
27269;SDS011;14769;56.934;24.176;2022-09-16T05:12:51;6.93;;;2.00;;
27269;SDS011;14769;56.934;24.176;2022-09-16T05:13:53;5.15;;;1.80;;
27269;SDS011;14769;56.934;24.176;2022-09-16T05:14:59;2.55;;;1.40;;
27269;SDS011;14769;56.934;24.176;2022-09-16T05:16:01;4.43;;;1.38;;
27269;SDS011;14769;56.934;24.176;2022-09-16T05:17:04;5.75;;;1.60;;
27269;SDS011;14769;56.934;24.176;2022-09-16T05:18:07;5.55;;;1.50;;
27269;SDS011;14769;56.934;24.176;2022-09-16T05:19:10;8.00;;;1.90;;
27269;SDS011;14769;56.934;24.176;2022-09-16T05:20:13;7.20;;;1.60;;
27269;SDS011;14769;56.934;24.176;2022-09-16T05:21:17;4.93;;;1.40;;
27269;SDS011;14769;56.934;24.176;2022-09-16T05:22:20;6.93;;;1.65;;
27269;SDS011;14769;56.934;24.176;2022-09-16T05:23:23;4.20;;;1.63;;
27269;SDS011;14769;56.934;24.176;2022-09-16T05:24:24;5.15;;;1.55;;
27269;SDS011;14769;56.934;24.176;2022-09-16T05:25:27;5.38;;;1.35;;
27269;SDS011;14769;56.934;24.176;2022-09-16T05:26:29;6.50;;;1.63;;
27269;SDS011;14769;56.934;24.176;2022-09-16T05:27:32;7.45;;;1.60;;
27269;SDS011;14769;56.934;24.176;2022-09-16T05:28:36;7.85;;;1.50;;
27269;SDS011;14769;56.934;24.176;2022-09-16T05:29:38;5.25;;;1.80;;
27269;SDS011;14769;56.934;24.176;2022-09-16T05:30:40;5.03;;;1.30;;
27269;SDS011;14769;56.934;24.176;2022-09-16T05:31:42;6.07;;;1.60;;
27269;SDS011;14769;56.934;24.176;2022-09-16T05:32:51;7.60;;;1.50;;
27269;SDS011;14769;56.934;24.176;2022-09-16T05:33:58;4.40;;;1.40;;
27269;SDS011;14769;56.934;24.176;2022-09-16T05:35:01;4.47;;;1.45;;
27269;SDS011;14769;56.934;24.176;2022-09-16T05:36:06;4.03;;;1.40;;
27269;SDS011;14769;56.934;24.176;2022-09-16T05:37:09;4.78;;;1.45;;
27269;SDS011;14769;56.934;24.176;2022-09-16T05:38:11;5.45;;;1.55;;
27269;SDS011;14769;56.934;24.176;2022-09-16T05:39:14;3.63;;;1.38;;
27269;SDS011;14769;56.934;24.176;2022-09-16T05:40:26;7.30;;;1.45;;
27269;SDS011;14769;56.934;24.176;2022-09-16T05:41:29;4.65;;;1.20;;
27269;SDS011;14769;56.934;24.176;2022-09-16T05:42:31;6.85;;;1.40;;
27269;SDS011;14769;56.934;24.176;2022-09-16T05:43:33;6.43;;;1.58;;
27269;SDS011;14769;56.934;24.176;2022-09-16T05:44:36;5.65;;;1.30;;
27269;SDS011;14769;56.934;24.176;2022-09-16T05:45:38;7.57;;;1.50;;
27269;SDS011;14769;56.934;24.176;2022-09-16T05:46:39;4.38;;;1.45;;
27269;SDS011;14769;56.934;24.176;2022-09-16T05:47:45;4.03;;;0.98;;
27269;SDS011;14769;56.934;24.176;2022-09-16T05:48:48;6.07;;;1.10;;
27269;SDS011;14769;56.934;24.176;2022-09-16T05:49:50;2.55;;;1.00;;
27269;SDS011;14769;56.934;24.176;2022-09-16T05:50:56;5.55;;;1.23;;
27269;SDS011;14769;56.934;24.176;2022-09-16T05:52:02;4.10;;;1.27;;
27269;SDS011;14769;56.934;24.176;2022-09-16T05:53:04;4.78;;;1.10;;
27269;SDS011;14769;56.934;24.176;2022-09-16T05:54:06;3.30;;;1.33;;
27269;SDS011;14769;56.934;24.176;2022-09-16T05:55:07;3.10;;;1.27;;
27269;SDS011;14769;56.934;24.176;2022-09-16T05:56:11;5.05;;;1.17;;
27269;SDS011;14769;56.934;24.176;2022-09-16T05:57:14;3.10;;;1.00;;
27269;SDS011;14769;56.934;24.176;2022-09-16T05:58:16;6.18;;;1.40;;
27269;SDS011;14769;56.934;24.176;2022-09-16T05:59:18;3.63;;;1.10;;
27269;SDS011;14769;56.934;24.176;2022-09-16T06:00:20;2.85;;;1.15;;
27269;SDS011;14769;56.934;24.176;2022-09-16T06:01:22;3.10;;;1.33;;
27269;SDS011;14769;56.934;24.176;2022-09-16T06:02:27;3.55;;;1.00;;
27269;SDS011;14769;56.934;24.176;2022-09-16T06:03:28;2.17;;;0.90;;
27269;SDS011;14769;56.934;24.176;2022-09-16T06:04:30;5.15;;;1.30;;
27269;SDS011;14769;56.934;24.176;2022-09-16T06:05:32;5.47;;;1.30;;
27269;SDS011;14769;56.934;24.176;2022-09-16T06:06:35;3.72;;;1.00;;
27269;SDS011;14769;56.934;24.176;2022-09-16T06:07:38;4.07;;;1.17;;
27269;SDS011;14769;56.934;24.176;2022-09-16T06:08:40;5.65;;;1.45;;
27269;SDS011;14769;56.934;24.176;2022-09-16T06:09:42;5.97;;;1.35;;
27269;SDS011;14769;56.934;24.176;2022-09-16T06:10:44;4.20;;;0.98;;
27269;SDS011;14769;56.934;24.176;2022-09-16T06:11:48;3.92;;;1.23;;
27269;SDS011;14769;56.934;24.176;2022-09-16T06:12:51;4.05;;;1.10;;
27269;SDS011;14769;56.934;24.176;2022-09-16T06:13:53;5.80;;;1.25;;
27269;SDS011;14769;56.934;24.176;2022-09-16T06:14:57;4.15;;;1.13;;
27269;SDS011;14769;56.934;24.176;2022-09-16T06:15:59;4.95;;;1.30;;
27269;SDS011;14769;56.934;24.176;2022-09-16T06:17:01;2.70;;;1.02;;
27269;SDS011;14769;56.934;24.176;2022-09-16T06:18:03;4.50;;;1.17;;
27269;SDS011;14769;56.934;24.176;2022-09-16T06:19:08;9.05;;;2.33;;
27269;SDS011;14769;56.934;24.176;2022-09-16T06:20:13;6.13;;;1.75;;
27269;SDS011;14769;56.934;24.176;2022-09-16T06:21:16;4.57;;;1.25;;
27269;SDS011;14769;56.934;24.176;2022-09-16T06:22:18;6.85;;;1.48;;
27269;SDS011;14769;56.934;24.176;2022-09-16T06:23:20;13.60;;;2.88;;
27269;SDS011;14769;56.934;24.176;2022-09-16T06:24:22;16.13;;;2.72;;
27269;SDS011;14769;56.934;24.176;2022-09-16T06:25:24;5.60;;;1.27;;
27269;SDS011;14769;56.934;24.176;2022-09-16T06:26:26;10.18;;;2.53;;
27269;SDS011;14769;56.934;24.176;2022-09-16T06:27:30;3.40;;;1.27;;
27269;SDS011;14769;56.934;24.176;2022-09-16T06:28:31;4.43;;;1.20;;
27269;SDS011;14769;56.934;24.176;2022-09-16T06:29:34;5.35;;;1.00;;
27269;SDS011;14769;56.934;24.176;2022-09-16T06:30:36;4.20;;;1.10;;
27269;SDS011;14769;56.934;24.176;2022-09-16T06:31:38;4.07;;;1.10;;
27269;SDS011;14769;56.934;24.176;2022-09-16T06:32:41;3.47;;;1.10;;
27269;SDS011;14769;56.934;24.176;2022-09-16T06:33:42;7.70;;;1.83;;
27269;SDS011;14769;56.934;24.176;2022-09-16T06:34:45;5.13;;;1.38;;
27269;SDS011;14769;56.934;24.176;2022-09-16T06:35:47;3.63;;;1.30;;
27269;SDS011;14769;56.934;24.176;2022-09-16T06:36:49;4.68;;;1.20;;
27269;SDS011;14769;56.934;24.176;2022-09-16T06:37:52;4.93;;;1.10;;
27269;SDS011;14769;56.934;24.176;2022-09-16T06:38:54;4.78;;;1.13;;
27269;SDS011;14769;56.934;24.176;2022-09-16T06:39:56;7.10;;;1.52;;
27269;SDS011;14769;56.934;24.176;2022-09-16T06:41:02;6.43;;;1.73;;
27269;SDS011;14769;56.934;24.176;2022-09-16T06:42:06;12.30;;;2.38;;
27269;SDS011;14769;56.934;24.176;2022-09-16T06:43:08;5.20;;;1.63;;
27269;SDS011;14769;56.934;24.176;2022-09-16T06:44:10;6.40;;;1.40;;
27269;SDS011;14769;56.934;24.176;2022-09-16T06:45:12;6.40;;;1.58;;
27269;SDS011;14769;56.934;24.176;2022-09-16T06:46:14;6.38;;;1.80;;
27269;SDS011;14769;56.934;24.176;2022-09-16T06:47:18;5.75;;;1.00;;
27269;SDS011;14769;56.934;24.176;2022-09-16T06:48:19;4.82;;;1.38;;
27269;SDS011;14769;56.934;24.176;2022-09-16T06:49:21;3.55;;;1.00;;
27269;SDS011;14769;56.934;24.176;2022-09-16T06:50:23;5.95;;;1.05;;
27269;SDS011;14769;56.934;24.176;2022-09-16T06:51:26;4.03;;;0.95;;
27269;SDS011;14769;56.934;24.176;2022-09-16T06:52:29;3.47;;;1.10;;
27269;SDS011;14769;56.934;24.176;2022-09-16T06:53:32;5.20;;;1.17;;
27269;SDS011;14769;56.934;24.176;2022-09-16T06:54:33;2.35;;;0.90;;
27269;SDS011;14769;56.934;24.176;2022-09-16T06:55:35;2.50;;;0.85;;
27269;SDS011;14769;56.934;24.176;2022-09-16T06:56:37;4.22;;;0.80;;
27269;SDS011;14769;56.934;24.176;2022-09-16T06:57:41;3.65;;;1.00;;
27269;SDS011;14769;56.934;24.176;2022-09-16T06:58:44;1.98;;;0.82;;
27269;SDS011;14769;56.934;24.176;2022-09-16T06:59:48;2.15;;;0.73;;
27269;SDS011;14769;56.934;24.176;2022-09-16T07:00:50;3.58;;;1.33;;
27269;SDS011;14769;56.934;24.176;2022-09-16T07:01:52;5.07;;;1.08;;
27269;SDS011;14769;56.934;24.176;2022-09-16T07:02:54;3.10;;;1.20;;
27269;SDS011;14769;56.934;24.176;2022-09-16T07:03:57;5.38;;;1.60;;